sensor_id;sensor_type;location;lat;lon;timestamp;P1;durP1;ratioP1;P2;durP2;ratioP2
53718;SDS011;39616;48.872;9.390;2023-05-10T00:01:32;1.17;;;0.80;;
53718;SDS011;39616;48.872;9.390;2023-05-10T00:04:02;1.15;;;0.70;;
53718;SDS011;39616;48.872;9.390;2023-05-10T00:06:33;1.02;;;0.80;;
53718;SDS011;39616;48.872;9.390;2023-05-10T00:09:03;0.70;;;0.70;;
53718;SDS011;39616;48.872;9.390;2023-05-10T00:11:33;2.95;;;0.70;;
53718;SDS011;39616;48.872;9.390;2023-05-10T00:14:04;0.60;;;0.57;;
53718;SDS011;39616;48.872;9.390;2023-05-10T00:16:34;1.45;;;0.70;;
53718;SDS011;39616;48.872;9.390;2023-05-10T00:19:04;7.00;;;1.05;;
53718;SDS011;39616;48.872;9.390;2023-05-10T00:21:35;2.92;;;0.60;;
53718;SDS011;39616;48.872;9.390;2023-05-10T00:24:05;0.63;;;0.57;;
53718;SDS011;39616;48.872;9.390;2023-05-10T00:26:35;1.38;;;0.50;;
53718;SDS011;39616;48.872;9.390;2023-05-10T00:29:06;0.63;;;0.40;;
53718;SDS011;39616;48.872;9.390;2023-05-10T00:31:36;1.92;;;0.30;;
53718;SDS011;39616;48.872;9.390;2023-05-10T00:34:06;1.10;;;0.28;;
53718;SDS011;39616;48.872;9.390;2023-05-10T00:36:37;1.02;;;0.20;;
53718;SDS011;39616;48.872;9.390;2023-05-10T00:39:07;0.20;;;0.20;;
53718;SDS011;39616;48.872;9.390;2023-05-10T00:41:37;0.20;;;0.20;;
53718;SDS011;39616;48.872;9.390;2023-05-10T00:44:08;0.20;;;0.20;;
53718;SDS011;39616;48.872;9.390;2023-05-10T00:46:38;0.85;;;0.20;;
53718;SDS011;39616;48.872;9.390;2023-05-10T00:49:08;0.20;;;0.20;;
53718;SDS011;39616;48.872;9.390;2023-05-10T00:51:39;1.60;;;0.20;;
53718;SDS011;39616;48.872;9.390;2023-05-10T00:54:14;3.70;;;0.20;;
53718;SDS011;39616;48.872;9.390;2023-05-10T00:56:45;0.82;;;0.20;;
53718;SDS011;39616;48.872;9.390;2023-05-10T00:59:18;1.42;;;0.20;;
53718;SDS011;39616;48.872;9.390;2023-05-10T01:01:49;0.20;;;0.20;;
53718;SDS011;39616;48.872;9.390;2023-05-10T01:04:21;0.20;;;0.20;;
53718;SDS011;39616;48.872;9.390;2023-05-10T01:06:55;0.45;;;0.10;;
53718;SDS011;39616;48.872;9.390;2023-05-10T01:09:26;0.20;;;0.20;;
53718;SDS011;39616;48.872;9.390;2023-05-10T01:11:57;0.20;;;0.20;;
53718;SDS011;39616;48.872;9.390;2023-05-10T01:14:29;0.85;;;0.20;;
53718;SDS011;39616;48.872;9.390;2023-05-10T01:17:00;0.20;;;0.20;;
53718;SDS011;39616;48.872;9.390;2023-05-10T01:19:31;0.30;;;0.30;;
53718;SDS011;39616;48.872;9.390;2023-05-10T01:22:07;0.40;;;0.30;;
53718;SDS011;39616;48.872;9.390;2023-05-10T01:27:53;0.40;;;0.30;;
53718;SDS011;39616;48.872;9.390;2023-05-10T01:33:54;0.20;;;0.20;;
53718;SDS011;39616;48.872;9.390;2023-05-10T01:36:38;0.52;;;0.30;;
53718;SDS011;39616;48.872;9.390;2023-05-10T01:42:02;0.40;;;0.40;;
53718;SDS011;39616;48.872;9.390;2023-05-10T01:47:12;0.50;;;0.50;;
53718;SDS011;39616;48.872;9.390;2023-05-10T01:49:47;1.75;;;0.60;;
53718;SDS011;39616;48.872;9.390;2023-05-10T01:52:22;0.40;;;0.40;;
53718;SDS011;39616;48.872;9.390;2023-05-10T01:55:01;0.60;;;0.60;;
53718;SDS011;39616;48.872;9.390;2023-05-10T01:57:37;0.60;;;0.60;;
53718;SDS011;39616;48.872;9.390;2023-05-10T02:00:10;0.70;;;0.70;;
53718;SDS011;39616;48.872;9.390;2023-05-10T02:02:46;0.60;;;0.60;;
53718;SDS011;39616;48.872;9.390;2023-05-10T02:05:18;0.73;;;0.73;;
53718;SDS011;39616;48.872;9.390;2023-05-10T02:07:51;0.85;;;0.80;;
53718;SDS011;39616;48.872;9.390;2023-05-10T02:10:22;1.88;;;0.70;;
53718;SDS011;39616;48.872;9.390;2023-05-10T02:12:52;0.82;;;0.80;;
53718;SDS011;39616;48.872;9.390;2023-05-10T02:15:23;1.70;;;0.70;;
53718;SDS011;39616;48.872;9.390;2023-05-10T02:17:56;1.38;;;0.90;;
53718;SDS011;39616;48.872;9.390;2023-05-10T02:20:29;0.82;;;0.70;;
53718;SDS011;39616;48.872;9.390;2023-05-10T02:23:01;0.80;;;0.80;;
53718;SDS011;39616;48.872;9.390;2023-05-10T02:25:33;0.80;;;0.70;;
53718;SDS011;39616;48.872;9.390;2023-05-10T02:28:05;1.27;;;0.77;;
53718;SDS011;39616;48.872;9.390;2023-05-10T02:30:37;0.65;;;0.65;;
53718;SDS011;39616;48.872;9.390;2023-05-10T02:33:08;0.65;;;0.60;;
53718;SDS011;39616;48.872;9.390;2023-05-10T02:35:39;0.68;;;0.68;;
53718;SDS011;39616;48.872;9.390;2023-05-10T02:38:12;0.80;;;0.80;;
53718;SDS011;39616;48.872;9.390;2023-05-10T02:40:44;0.82;;;0.70;;
53718;SDS011;39616;48.872;9.390;2023-05-10T02:43:17;0.73;;;0.70;;
53718;SDS011;39616;48.872;9.390;2023-05-10T02:45:48;0.70;;;0.70;;
53718;SDS011;39616;48.872;9.390;2023-05-10T02:48:19;3.75;;;0.70;;
53718;SDS011;39616;48.872;9.390;2023-05-10T02:50:50;2.10;;;0.80;;
53718;SDS011;39616;48.872;9.390;2023-05-10T02:53:22;0.60;;;0.60;;
53718;SDS011;39616;48.872;9.390;2023-05-10T02:58:30;2.97;;;0.70;;
53718;SDS011;39616;48.872;9.390;2023-05-10T03:01:01;2.88;;;0.82;;
53718;SDS011;39616;48.872;9.390;2023-05-10T03:03:31;0.70;;;0.70;;
53718;SDS011;39616;48.872;9.390;2023-05-10T03:06:02;0.70;;;0.70;;
53718;SDS011;39616;48.872;9.390;2023-05-10T03:08:32;0.60;;;0.60;;
53718;SDS011;39616;48.872;9.390;2023-05-10T03:11:17;0.52;;;0.52;;
53718;SDS011;39616;48.872;9.390;2023-05-10T03:14:25;1.80;;;0.50;;
53718;SDS011;39616;48.872;9.390;2023-05-10T03:17:06;1.35;;;0.70;;
53718;SDS011;39616;48.872;9.390;2023-05-10T03:20:15;1.75;;;0.63;;
53718;SDS011;39616;48.872;9.390;2023-05-10T03:22:50;0.75;;;0.50;;
53718;SDS011;39616;48.872;9.390;2023-05-10T03:25:23;0.60;;;0.60;;
53718;SDS011;39616;48.872;9.390;2023-05-10T03:27:54;2.13;;;0.70;;
53718;SDS011;39616;48.872;9.390;2023-05-10T03:30:26;0.90;;;0.70;;
53718;SDS011;39616;48.872;9.390;2023-05-10T03:32:58;2.70;;;0.60;;
53718;SDS011;39616;48.872;9.390;2023-05-10T03:35:34;1.35;;;0.73;;
53718;SDS011;39616;48.872;9.390;2023-05-10T03:38:05;0.90;;;0.70;;
53718;SDS011;39616;48.872;9.390;2023-05-10T03:40:35;0.63;;;0.63;;
53718;SDS011;39616;48.872;9.390;2023-05-10T03:43:06;3.10;;;0.77;;
53718;SDS011;39616;48.872;9.390;2023-05-10T03:45:36;0.95;;;0.70;;
53718;SDS011;39616;48.872;9.390;2023-05-10T03:48:06;0.73;;;0.65;;
53718;SDS011;39616;48.872;9.390;2023-05-10T03:50:37;1.05;;;0.80;;
53718;SDS011;39616;48.872;9.390;2023-05-10T03:53:07;2.03;;;0.80;;
53718;SDS011;39616;48.872;9.390;2023-05-10T03:55:37;1.20;;;0.70;;
53718;SDS011;39616;48.872;9.390;2023-05-10T03:58:10;2.95;;;0.93;;
53718;SDS011;39616;48.872;9.390;2023-05-10T04:00:41;0.70;;;0.70;;
53718;SDS011;39616;48.872;9.390;2023-05-10T04:03:13;1.13;;;0.98;;
53718;SDS011;39616;48.872;9.390;2023-05-10T04:05:44;0.95;;;0.90;;
53718;SDS011;39616;48.872;9.390;2023-05-10T04:08:14;1.10;;;1.00;;
53718;SDS011;39616;48.872;9.390;2023-05-10T04:10:46;2.45;;;1.00;;
53718;SDS011;39616;48.872;9.390;2023-05-10T04:13:16;3.80;;;1.13;;
53718;SDS011;39616;48.872;9.390;2023-05-10T04:15:46;1.63;;;1.20;;
53718;SDS011;39616;48.872;9.390;2023-05-10T04:18:17;2.25;;;1.17;;
53718;SDS011;39616;48.872;9.390;2023-05-10T04:20:47;1.20;;;1.05;;
53718;SDS011;39616;48.872;9.390;2023-05-10T04:23:17;2.65;;;1.15;;
53718;SDS011;39616;48.872;9.390;2023-05-10T04:25:48;2.35;;;1.38;;
53718;SDS011;39616;48.872;9.390;2023-05-10T04:28:18;1.98;;;1.30;;
53718;SDS011;39616;48.872;9.390;2023-05-10T04:30:48;2.40;;;1.30;;
53718;SDS011;39616;48.872;9.390;2023-05-10T04:33:18;2.08;;;1.88;;
53718;SDS011;39616;48.872;9.390;2023-05-10T04:35:49;5.22;;;1.40;;
53718;SDS011;39616;48.872;9.390;2023-05-10T04:38:19;7.07;;;1.60;;
53718;SDS011;39616;48.872;9.390;2023-05-10T04:40:49;1.88;;;1.40;;
53718;SDS011;39616;48.872;9.390;2023-05-10T04:43:20;4.78;;;1.33;;
53718;SDS011;39616;48.872;9.390;2023-05-10T04:45:50;2.95;;;1.30;;
53718;SDS011;39616;48.872;9.390;2023-05-10T04:48:20;2.72;;;1.33;;
53718;SDS011;39616;48.872;9.390;2023-05-10T04:50:51;2.08;;;1.10;;
53718;SDS011;39616;48.872;9.390;2023-05-10T04:53:21;1.13;;;0.90;;
53718;SDS011;39616;48.872;9.390;2023-05-10T04:55:52;2.88;;;1.00;;
53718;SDS011;39616;48.872;9.390;2023-05-10T04:58:22;1.10;;;1.00;;
53718;SDS011;39616;48.872;9.390;2023-05-10T05:00:52;2.10;;;0.90;;
53718;SDS011;39616;48.872;9.390;2023-05-10T05:03:22;1.08;;;0.93;;
53718;SDS011;39616;48.872;9.390;2023-05-10T05:05:53;0.90;;;0.90;;
53718;SDS011;39616;48.872;9.390;2023-05-10T05:08:23;0.90;;;0.90;;
53718;SDS011;39616;48.872;9.390;2023-05-10T05:10:54;1.98;;;1.00;;
53718;SDS011;39616;48.872;9.390;2023-05-10T05:13:24;1.02;;;0.90;;
53718;SDS011;39616;48.872;9.390;2023-05-10T05:15:54;2.30;;;0.80;;
53718;SDS011;39616;48.872;9.390;2023-05-10T05:18:25;3.90;;;1.00;;
53718;SDS011;39616;48.872;9.390;2023-05-10T05:20:55;4.65;;;1.00;;
53718;SDS011;39616;48.872;9.390;2023-05-10T05:23:26;1.38;;;0.90;;
53718;SDS011;39616;48.872;9.390;2023-05-10T05:25:56;4.75;;;0.90;;
53718;SDS011;39616;48.872;9.390;2023-05-10T05:28:27;0.77;;;0.70;;
53718;SDS011;39616;48.872;9.390;2023-05-10T05:31:06;1.73;;;0.88;;
53718;SDS011;39616;48.872;9.390;2023-05-10T05:33:39;3.50;;;1.00;;
53718;SDS011;39616;48.872;9.390;2023-05-10T05:36:10;2.35;;;0.82;;
53718;SDS011;39616;48.872;9.390;2023-05-10T05:38:40;1.00;;;0.80;;
53718;SDS011;39616;48.872;9.390;2023-05-10T05:41:10;3.17;;;0.75;;
53718;SDS011;39616;48.872;9.390;2023-05-10T05:43:41;4.13;;;0.70;;
53718;SDS011;39616;48.872;9.390;2023-05-10T05:46:11;2.33;;;0.80;;
53718;SDS011;39616;48.872;9.390;2023-05-10T05:48:41;2.55;;;0.80;;
53718;SDS011;39616;48.872;9.390;2023-05-10T05:51:12;0.90;;;0.60;;
53718;SDS011;39616;48.872;9.390;2023-05-10T05:53:42;1.42;;;0.77;;
53718;SDS011;39616;48.872;9.390;2023-05-10T05:56:12;2.85;;;0.90;;
53718;SDS011;39616;48.872;9.390;2023-05-10T05:58:42;1.95;;;1.10;;
53718;SDS011;39616;48.872;9.390;2023-05-10T06:01:13;2.67;;;0.80;;
53718;SDS011;39616;48.872;9.390;2023-05-10T06:03:43;3.33;;;1.20;;
53718;SDS011;39616;48.872;9.390;2023-05-10T06:06:14;1.38;;;0.90;;
53718;SDS011;39616;48.872;9.390;2023-05-10T06:08:44;0.90;;;0.90;;
53718;SDS011;39616;48.872;9.390;2023-05-10T06:11:14;1.83;;;0.85;;
53718;SDS011;39616;48.872;9.390;2023-05-10T06:13:45;2.33;;;1.10;;
53718;SDS011;39616;48.872;9.390;2023-05-10T06:16:16;2.47;;;1.02;;
53718;SDS011;39616;48.872;9.390;2023-05-10T06:18:46;1.10;;;1.00;;
53718;SDS011;39616;48.872;9.390;2023-05-10T06:21:16;1.73;;;1.25;;
53718;SDS011;39616;48.872;9.390;2023-05-10T06:23:47;2.67;;;1.20;;
53718;SDS011;39616;48.872;9.390;2023-05-10T06:26:17;2.92;;;1.00;;
53718;SDS011;39616;48.872;9.390;2023-05-10T06:28:47;3.30;;;1.40;;
53718;SDS011;39616;48.872;9.390;2023-05-10T06:31:18;1.33;;;1.20;;
53718;SDS011;39616;48.872;9.390;2023-05-10T06:33:48;5.88;;;1.60;;
53718;SDS011;39616;48.872;9.390;2023-05-10T06:36:18;4.50;;;1.20;;
53718;SDS011;39616;48.872;9.390;2023-05-10T06:38:49;2.25;;;1.30;;
53718;SDS011;39616;48.872;9.390;2023-05-10T06:41:19;1.95;;;1.33;;
53718;SDS011;39616;48.872;9.390;2023-05-10T06:43:49;2.85;;;1.33;;
53718;SDS011;39616;48.872;9.390;2023-05-10T06:46:19;1.42;;;1.33;;
53718;SDS011;39616;48.872;9.390;2023-05-10T06:48:50;1.67;;;1.30;;
53718;SDS011;39616;48.872;9.390;2023-05-10T06:51:20;6.60;;;1.45;;
53718;SDS011;39616;48.872;9.390;2023-05-10T06:53:51;1.65;;;1.10;;
53718;SDS011;39616;48.872;9.390;2023-05-10T06:56:21;2.70;;;1.30;;
53718;SDS011;39616;48.872;9.390;2023-05-10T06:58:51;2.63;;;1.13;;
53718;SDS011;39616;48.872;9.390;2023-05-10T07:01:22;1.92;;;1.10;;
53718;SDS011;39616;48.872;9.390;2023-05-10T07:03:52;2.80;;;1.17;;
53718;SDS011;39616;48.872;9.390;2023-05-10T07:06:23;5.80;;;1.00;;
53718;SDS011;39616;48.872;9.390;2023-05-10T07:08:53;1.90;;;1.08;;
53718;SDS011;39616;48.872;9.390;2023-05-10T07:11:23;5.28;;;1.70;;
53718;SDS011;39616;48.872;9.390;2023-05-10T07:13:53;4.60;;;1.15;;
53718;SDS011;39616;48.872;9.390;2023-05-10T07:16:24;1.13;;;0.88;;
53718;SDS011;39616;48.872;9.390;2023-05-10T07:18:54;1.20;;;0.90;;
53718;SDS011;39616;48.872;9.390;2023-05-10T07:21:24;2.30;;;0.70;;
53718;SDS011;39616;48.872;9.390;2023-05-10T07:23:58;3.38;;;1.30;;
53718;SDS011;39616;48.872;9.390;2023-05-10T07:26:29;1.55;;;0.60;;
53718;SDS011;39616;48.872;9.390;2023-05-10T07:28:59;1.17;;;0.70;;
53718;SDS011;39616;48.872;9.390;2023-05-10T07:31:30;1.80;;;0.70;;
53718;SDS011;39616;48.872;9.390;2023-05-10T07:34:00;0.70;;;0.60;;
53718;SDS011;39616;48.872;9.390;2023-05-10T07:36:30;0.70;;;0.70;;
53718;SDS011;39616;48.872;9.390;2023-05-10T07:39:01;0.60;;;0.60;;
53718;SDS011;39616;48.872;9.390;2023-05-10T07:41:32;1.67;;;0.70;;
53718;SDS011;39616;48.872;9.390;2023-05-10T07:44:02;1.25;;;0.50;;
53718;SDS011;39616;48.872;9.390;2023-05-10T07:46:33;2.58;;;0.60;;
53718;SDS011;39616;48.872;9.390;2023-05-10T07:49:04;2.63;;;0.60;;
53718;SDS011;39616;48.872;9.390;2023-05-10T07:51:34;0.60;;;0.50;;
53718;SDS011;39616;48.872;9.390;2023-05-10T07:54:04;1.23;;;0.60;;
53718;SDS011;39616;48.872;9.390;2023-05-10T07:56:35;1.90;;;0.60;;
53718;SDS011;39616;48.872;9.390;2023-05-10T07:59:05;0.57;;;0.57;;
53718;SDS011;39616;48.872;9.390;2023-05-10T08:01:36;3.25;;;0.80;;
53718;SDS011;39616;48.872;9.390;2023-05-10T08:04:07;1.05;;;0.52;;
53718;SDS011;39616;48.872;9.390;2023-05-10T08:06:37;2.08;;;0.40;;
53718;SDS011;39616;48.872;9.390;2023-05-10T08:09:08;1.58;;;0.50;;
53718;SDS011;39616;48.872;9.390;2023-05-10T08:11:38;0.40;;;0.40;;
53718;SDS011;39616;48.872;9.390;2023-05-10T08:14:08;0.73;;;0.40;;
53718;SDS011;39616;48.872;9.390;2023-05-10T08:16:39;0.50;;;0.40;;
53718;SDS011;39616;48.872;9.390;2023-05-10T08:19:09;0.65;;;0.32;;
53718;SDS011;39616;48.872;9.390;2023-05-10T08:21:39;0.70;;;0.43;;
53718;SDS011;39616;48.872;9.390;2023-05-10T08:24:10;0.30;;;0.30;;
53718;SDS011;39616;48.872;9.390;2023-05-10T08:26:40;3.03;;;0.40;;
53718;SDS011;39616;48.872;9.390;2023-05-10T08:29:11;1.20;;;0.35;;
53718;SDS011;39616;48.872;9.390;2023-05-10T08:31:41;1.13;;;0.40;;
53718;SDS011;39616;48.872;9.390;2023-05-10T08:34:11;0.43;;;0.40;;
53718;SDS011;39616;48.872;9.390;2023-05-10T08:36:42;2.15;;;0.60;;
53718;SDS011;39616;48.872;9.390;2023-05-10T08:39:12;3.60;;;0.50;;
53718;SDS011;39616;48.872;9.390;2023-05-10T08:41:44;0.73;;;0.43;;
53718;SDS011;39616;48.872;9.390;2023-05-10T08:44:15;0.45;;;0.45;;
53718;SDS011;39616;48.872;9.390;2023-05-10T08:46:46;0.40;;;0.30;;
53718;SDS011;39616;48.872;9.390;2023-05-10T08:49:19;1.58;;;0.38;;
53718;SDS011;39616;48.872;9.390;2023-05-10T08:51:51;4.90;;;0.50;;
53718;SDS011;39616;48.872;9.390;2023-05-10T08:54:24;2.75;;;0.32;;
53718;SDS011;39616;48.872;9.390;2023-05-10T08:56:55;1.45;;;0.30;;
53718;SDS011;39616;48.872;9.390;2023-05-10T08:59:26;1.40;;;0.40;;
53718;SDS011;39616;48.872;9.390;2023-05-10T09:01:57;0.40;;;0.40;;
53718;SDS011;39616;48.872;9.390;2023-05-10T09:04:29;1.42;;;0.30;;
53718;SDS011;39616;48.872;9.390;2023-05-10T09:07:00;1.40;;;0.40;;
53718;SDS011;39616;48.872;9.390;2023-05-10T09:09:31;0.32;;;0.30;;
53718;SDS011;39616;48.872;9.390;2023-05-10T09:12:01;0.40;;;0.20;;
53718;SDS011;39616;48.872;9.390;2023-05-10T09:14:32;0.77;;;0.30;;
53718;SDS011;39616;48.872;9.390;2023-05-10T09:17:05;0.40;;;0.28;;
53718;SDS011;39616;48.872;9.390;2023-05-10T09:19:35;0.30;;;0.30;;
53718;SDS011;39616;48.872;9.390;2023-05-10T09:22:06;2.05;;;0.30;;
53718;SDS011;39616;48.872;9.390;2023-05-10T09:24:36;0.75;;;0.20;;
53718;SDS011;39616;48.872;9.390;2023-05-10T09:27:12;0.22;;;0.22;;
53718;SDS011;39616;48.872;9.390;2023-05-10T09:29:42;1.38;;;0.20;;
53718;SDS011;39616;48.872;9.390;2023-05-10T09:32:13;0.30;;;0.30;;
53718;SDS011;39616;48.872;9.390;2023-05-10T09:34:44;0.20;;;0.20;;
53718;SDS011;39616;48.872;9.390;2023-05-10T09:37:15;3.03;;;0.25;;
53718;SDS011;39616;48.872;9.390;2023-05-10T09:39:46;0.25;;;0.20;;
53718;SDS011;39616;48.872;9.390;2023-05-10T09:42:17;0.63;;;0.20;;
53718;SDS011;39616;48.872;9.390;2023-05-10T09:44:48;0.65;;;0.30;;
53718;SDS011;39616;48.872;9.390;2023-05-10T09:47:18;0.52;;;0.30;;
53718;SDS011;39616;48.872;9.390;2023-05-10T09:49:49;0.57;;;0.10;;
53718;SDS011;39616;48.872;9.390;2023-05-10T09:52:21;0.20;;;0.20;;
53718;SDS011;39616;48.872;9.390;2023-05-10T09:54:54;1.08;;;0.20;;
53718;SDS011;39616;48.872;9.390;2023-05-10T09:57:25;0.20;;;0.20;;
53718;SDS011;39616;48.872;9.390;2023-05-10T09:59:56;0.40;;;0.20;;
53718;SDS011;39616;48.872;9.390;2023-05-10T10:02:30;1.10;;;0.20;;
53718;SDS011;39616;48.872;9.390;2023-05-10T10:05:01;0.30;;;0.28;;
53718;SDS011;39616;48.872;9.390;2023-05-10T10:07:33;2.88;;;0.28;;
53718;SDS011;39616;48.872;9.390;2023-05-10T10:10:05;2.13;;;0.30;;
53718;SDS011;39616;48.872;9.390;2023-05-10T10:12:35;0.30;;;0.30;;
53718;SDS011;39616;48.872;9.390;2023-05-10T10:15:06;4.43;;;0.20;;
53718;SDS011;39616;48.872;9.390;2023-05-10T10:17:38;1.13;;;0.30;;
53718;SDS011;39616;48.872;9.390;2023-05-10T10:20:09;0.20;;;0.20;;
53718;SDS011;39616;48.872;9.390;2023-05-10T10:22:40;0.80;;;0.30;;
53718;SDS011;39616;48.872;9.390;2023-05-10T10:25:11;0.20;;;0.20;;
53718;SDS011;39616;48.872;9.390;2023-05-10T10:33:47;1.17;;;0.30;;
53718;SDS011;39616;48.872;9.390;2023-05-10T10:36:26;1.33;;;0.20;;
53718;SDS011;39616;48.872;9.390;2023-05-10T10:38:58;1.25;;;0.30;;
53718;SDS011;39616;48.872;9.390;2023-05-10T10:41:37;1.02;;;0.30;;
53718;SDS011;39616;48.872;9.390;2023-05-10T10:54:58;0.40;;;0.30;;
53718;SDS011;39616;48.872;9.390;2023-05-10T11:00:19;1.73;;;0.30;;
53718;SDS011;39616;48.872;9.390;2023-05-10T11:03:11;2.17;;;0.88;;
53718;SDS011;39616;48.872;9.390;2023-05-10T11:05:49;0.30;;;0.30;;
53718;SDS011;39616;48.872;9.390;2023-05-10T11:08:28;0.30;;;0.30;;
53718;SDS011;39616;48.872;9.390;2023-05-10T11:13:34;0.70;;;0.30;;
53718;SDS011;39616;48.872;9.390;2023-05-10T11:16:22;0.20;;;0.20;;
53718;SDS011;39616;48.872;9.390;2023-05-10T11:21:30;0.63;;;0.30;;
53718;SDS011;39616;48.872;9.390;2023-05-10T11:24:01;0.30;;;0.30;;
53718;SDS011;39616;48.872;9.390;2023-05-10T11:26:35;0.30;;;0.30;;
53718;SDS011;39616;48.872;9.390;2023-05-10T11:29:05;0.20;;;0.20;;
53718;SDS011;39616;48.872;9.390;2023-05-10T11:31:41;1.85;;;0.20;;
53718;SDS011;39616;48.872;9.390;2023-05-10T11:34:23;1.02;;;0.20;;
53718;SDS011;39616;48.872;9.390;2023-05-10T11:36:59;2.60;;;0.20;;
53718;SDS011;39616;48.872;9.390;2023-05-10T11:39:31;2.53;;;0.20;;
53718;SDS011;39616;48.872;9.390;2023-05-10T11:42:01;0.43;;;0.30;;
53718;SDS011;39616;48.872;9.390;2023-05-10T11:44:32;1.92;;;0.30;;
53718;SDS011;39616;48.872;9.390;2023-05-10T11:47:03;0.40;;;0.20;;
53718;SDS011;39616;48.872;9.390;2023-05-10T11:49:33;1.25;;;0.20;;
53718;SDS011;39616;48.872;9.390;2023-05-10T11:52:07;0.90;;;0.40;;
53718;SDS011;39616;48.872;9.390;2023-05-10T11:54:44;0.70;;;0.30;;
53718;SDS011;39616;48.872;9.390;2023-05-10T11:57:17;1.88;;;0.28;;
53718;SDS011;39616;48.872;9.390;2023-05-10T11:59:56;15.15;;;0.50;;
53718;SDS011;39616;48.872;9.390;2023-05-10T12:02:27;11.20;;;0.45;;
53718;SDS011;39616;48.872;9.390;2023-05-10T12:04:58;2.20;;;0.30;;
53718;SDS011;39616;48.872;9.390;2023-05-10T12:07:29;1.15;;;0.43;;
53718;SDS011;39616;48.872;9.390;2023-05-10T12:12:47;1.73;;;0.47;;
53718;SDS011;39616;48.872;9.390;2023-05-10T12:17:49;1.15;;;0.40;;
53718;SDS011;39616;48.872;9.390;2023-05-10T12:20:21;2.25;;;0.35;;
53718;SDS011;39616;48.872;9.390;2023-05-10T12:22:54;0.65;;;0.40;;
53718;SDS011;39616;48.872;9.390;2023-05-10T12:25:29;0.60;;;0.30;;
53718;SDS011;39616;48.872;9.390;2023-05-10T12:28:02;2.20;;;0.55;;
53718;SDS011;39616;48.872;9.390;2023-05-10T12:30:35;2.78;;;0.40;;
53718;SDS011;39616;48.872;9.390;2023-05-10T12:33:13;3.75;;;0.43;;
53718;SDS011;39616;48.872;9.390;2023-05-10T12:35:48;2.25;;;0.50;;
53718;SDS011;39616;48.872;9.390;2023-05-10T12:40:59;1.27;;;0.40;;
53718;SDS011;39616;48.872;9.390;2023-05-10T12:43:32;3.08;;;0.57;;
53718;SDS011;39616;48.872;9.390;2023-05-10T12:46:06;3.33;;;0.70;;
53718;SDS011;39616;48.872;9.390;2023-05-10T12:48:39;1.08;;;0.32;;
53718;SDS011;39616;48.872;9.390;2023-05-10T12:51:10;0.70;;;0.40;;
53718;SDS011;39616;48.872;9.390;2023-05-10T12:53:43;3.10;;;0.40;;
53718;SDS011;39616;48.872;9.390;2023-05-10T12:56:15;1.88;;;0.30;;
53718;SDS011;39616;48.872;9.390;2023-05-10T12:58:45;2.63;;;0.82;;
53718;SDS011;39616;48.872;9.390;2023-05-10T13:01:17;1.52;;;0.30;;
53718;SDS011;39616;48.872;9.390;2023-05-10T13:03:48;2.22;;;0.40;;
53718;SDS011;39616;48.872;9.390;2023-05-10T13:06:18;0.60;;;0.30;;
53718;SDS011;39616;48.872;9.390;2023-05-10T13:08:48;1.13;;;0.40;;
53718;SDS011;39616;48.872;9.390;2023-05-10T13:11:19;2.78;;;0.35;;
53718;SDS011;39616;48.872;9.390;2023-05-10T13:13:51;3.03;;;0.47;;
53718;SDS011;39616;48.872;9.390;2023-05-10T13:16:21;3.40;;;0.50;;
53718;SDS011;39616;48.872;9.390;2023-05-10T13:18:51;0.40;;;0.40;;
53718;SDS011;39616;48.872;9.390;2023-05-10T13:21:22;2.03;;;0.30;;
53718;SDS011;39616;48.872;9.390;2023-05-10T13:23:54;0.93;;;0.30;;
53718;SDS011;39616;48.872;9.390;2023-05-10T13:26:24;0.82;;;0.38;;
53718;SDS011;39616;48.872;9.390;2023-05-10T13:28:55;1.58;;;0.50;;
53718;SDS011;39616;48.872;9.390;2023-05-10T13:31:25;0.50;;;0.30;;
53718;SDS011;39616;48.872;9.390;2023-05-10T13:33:55;2.85;;;0.40;;
53718;SDS011;39616;48.872;9.390;2023-05-10T13:36:26;1.67;;;0.40;;
53718;SDS011;39616;48.872;9.390;2023-05-10T13:38:56;0.75;;;0.30;;
53718;SDS011;39616;48.872;9.390;2023-05-10T13:41:26;5.55;;;0.43;;
53718;SDS011;39616;48.872;9.390;2023-05-10T13:43:57;0.30;;;0.30;;
53718;SDS011;39616;48.872;9.390;2023-05-10T13:46:28;1.92;;;0.40;;
53718;SDS011;39616;48.872;9.390;2023-05-10T13:48:59;7.35;;;0.77;;
53718;SDS011;39616;48.872;9.390;2023-05-10T13:51:29;1.08;;;0.40;;
53718;SDS011;39616;48.872;9.390;2023-05-10T13:54:01;2.20;;;0.60;;
53718;SDS011;39616;48.872;9.390;2023-05-10T13:56:32;3.20;;;0.43;;
53718;SDS011;39616;48.872;9.390;2023-05-10T13:59:03;1.67;;;0.35;;
53718;SDS011;39616;48.872;9.390;2023-05-10T14:01:33;1.88;;;0.30;;
53718;SDS011;39616;48.872;9.390;2023-05-10T14:04:03;1.40;;;0.40;;
53718;SDS011;39616;48.872;9.390;2023-05-10T14:06:34;2.35;;;0.32;;
53718;SDS011;39616;48.872;9.390;2023-05-10T14:09:04;3.28;;;0.32;;
53718;SDS011;39616;48.872;9.390;2023-05-10T14:11:35;1.67;;;0.40;;
53718;SDS011;39616;48.872;9.390;2023-05-10T14:14:06;0.75;;;0.32;;
53718;SDS011;39616;48.872;9.390;2023-05-10T14:16:37;1.27;;;0.20;;
53718;SDS011;39616;48.872;9.390;2023-05-10T14:19:09;1.20;;;0.40;;
53718;SDS011;39616;48.872;9.390;2023-05-10T14:21:39;0.50;;;0.38;;
53718;SDS011;39616;48.872;9.390;2023-05-10T14:24:11;2.17;;;0.40;;
53718;SDS011;39616;48.872;9.390;2023-05-10T14:26:41;2.40;;;0.40;;
53718;SDS011;39616;48.872;9.390;2023-05-10T14:29:12;1.00;;;0.38;;
53718;SDS011;39616;48.872;9.390;2023-05-10T14:31:43;1.27;;;0.38;;
53718;SDS011;39616;48.872;9.390;2023-05-10T14:34:13;2.15;;;0.30;;
53718;SDS011;39616;48.872;9.390;2023-05-10T14:36:44;2.05;;;0.30;;
53718;SDS011;39616;48.872;9.390;2023-05-10T14:39:14;0.45;;;0.38;;
53718;SDS011;39616;48.872;9.390;2023-05-10T14:41:45;2.42;;;0.35;;
53718;SDS011;39616;48.872;9.390;2023-05-10T14:44:17;0.75;;;0.30;;
53718;SDS011;39616;48.872;9.390;2023-05-10T14:46:48;2.85;;;0.70;;
53718;SDS011;39616;48.872;9.390;2023-05-10T14:49:19;1.20;;;0.40;;
53718;SDS011;39616;48.872;9.390;2023-05-10T14:51:52;1.48;;;0.52;;
53718;SDS011;39616;48.872;9.390;2023-05-10T14:54:23;0.60;;;0.40;;
53718;SDS011;39616;48.872;9.390;2023-05-10T14:56:54;0.93;;;0.30;;
53718;SDS011;39616;48.872;9.390;2023-05-10T14:59:24;2.33;;;0.50;;
53718;SDS011;39616;48.872;9.390;2023-05-10T15:01:55;3.55;;;0.40;;
53718;SDS011;39616;48.872;9.390;2023-05-10T15:04:26;3.65;;;0.40;;
53718;SDS011;39616;48.872;9.390;2023-05-10T15:06:57;0.50;;;0.30;;
53718;SDS011;39616;48.872;9.390;2023-05-10T15:09:29;2.20;;;0.50;;
53718;SDS011;39616;48.872;9.390;2023-05-10T15:12:00;3.28;;;0.60;;
53718;SDS011;39616;48.872;9.390;2023-05-10T15:14:30;1.13;;;0.38;;
53718;SDS011;39616;48.872;9.390;2023-05-10T15:17:03;1.50;;;0.40;;
53718;SDS011;39616;48.872;9.390;2023-05-10T15:19:36;0.40;;;0.40;;
53718;SDS011;39616;48.872;9.390;2023-05-10T15:22:07;1.35;;;0.30;;
53718;SDS011;39616;48.872;9.390;2023-05-10T15:24:37;1.88;;;0.35;;
53718;SDS011;39616;48.872;9.390;2023-05-10T15:27:08;0.65;;;0.35;;
53718;SDS011;39616;48.872;9.390;2023-05-10T15:29:38;2.53;;;0.47;;
53718;SDS011;39616;48.872;9.390;2023-05-10T15:32:09;0.52;;;0.40;;
53718;SDS011;39616;48.872;9.390;2023-05-10T15:34:39;0.82;;;0.30;;
53718;SDS011;39616;48.872;9.390;2023-05-10T15:37:09;0.40;;;0.30;;
53718;SDS011;39616;48.872;9.390;2023-05-10T15:39:40;2.58;;;0.35;;
53718;SDS011;39616;48.872;9.390;2023-05-10T15:42:11;0.35;;;0.30;;
53718;SDS011;39616;48.872;9.390;2023-05-10T15:44:41;1.60;;;0.40;;
53718;SDS011;39616;48.872;9.390;2023-05-10T15:47:14;0.52;;;0.30;;
53718;SDS011;39616;48.872;9.390;2023-05-10T15:49:44;0.70;;;0.32;;
53718;SDS011;39616;48.872;9.390;2023-05-10T15:52:15;4.25;;;0.50;;
53718;SDS011;39616;48.872;9.390;2023-05-10T15:54:45;0.98;;;0.30;;
53718;SDS011;39616;48.872;9.390;2023-05-10T15:57:16;0.47;;;0.30;;
53718;SDS011;39616;48.872;9.390;2023-05-10T15:59:47;0.60;;;0.40;;
53718;SDS011;39616;48.872;9.390;2023-05-10T16:02:17;0.40;;;0.40;;